< < Back
Terminal Aerodrome Forecast


Current Version              Previous Versions:   1  2  3  4  5  6  7  8  9  

Terminal Aerodrome Forecast

078
FTUS42 KTAE 221500 AAA
TAFTLH
TAF AMD
KTLH 221535Z 2216/2312 10010G15KT P6SM BKN050 BKN250
     FM222100 08010KT P6SM VCSH BKN025 BKN250
     FM230000 08010KT 3SM RA BR OVC007=

Latest METAR

813
SAUS80 KWBC 220400 RRG
MTRTLH
METAR KTLH 230353Z 07008KT 5SM RA BR BKN010 OVC017 18/16 A3008 RMK AO2
SLP186 LAST AUGMENTED OBS P0013 T01780156 $


USA.gov is the U.S. government's official web portal to all federal, state and local government web resources and services.